aviador You're here:

KMAO Decoded Metar

MARION in SC, USA
Report Time2017-04-29 11:15:00
UTC Time2017-04-29 11:15:19
Flight Rules mvfr MVFR
Wind160° at 03 kt
W.Decomp.*RWY 22: 1.8 kt HW 2.4 kt LCW
W.Rank160° ranks 14
Current wind is below 160° avg. (5.7)
Visibility8047 m
Phenomena:Mist
Clouds:Broken 019 Hf
Expected CloudBase > 400 ft AGL from Temp-Dew spread
Ceiling1,900 ft
Temp21°C (ISA +6)
Dew Point20°C (94% RH)
QNH1023 hPa
Density Alt787 ft
Elevation92 ft
Report Wrong Elevation
Raw Report
METAR KMAO 291115Z AUTO 16003KT 5SM BR BKN019 21/20 A3022 RMK AO2=

Extra information for KMAO:More info

Metar Taf Metar & Taf Last 4 Metars F.Rules Stats Wind Profile Meteogram Temp Stats Airport Information Weather charts Add Link Nearby VenuesMetar ALERT Operation Metar Decoded Social comments

AIRNAV info for KMAO